Aérodrome :
LOGIN :

S'inscrire | Disclaimer

   EN    FR    IT 

 










Légende :    VFR   VFR Marginal   IFR   IFR Intensif   IFR Très Intensif
Visi : 
Plafond : 
>= 8 km
>= 3000ft
5 à 8 km
1000 à 3000 ft
1500m à 5 km
500 à 1000 ft
800 à 1500m
200 à 500 ft
< 800m
< 200 ft
Symboles :   Orages  Brouillard  Fortes neiges  Fortes précipitations  Vent > 20 kt
SIGMETs :   Divers  Orages  Givrage  Turbulence  Onde Orograph.  Cendres Volcan.






- Altitude de l'aérodrome : 55 ft
- Code IATA : DSA


EGCN - Robin Hood Doncaster Sheffield

DERNIER METAR :
  • 151320Z 21008KT 9999 FEW012 OVC019 13/10 Q1003

METARs EXPIRÉS :
  • 151250Z 20008KT 9999 SCT014 OVC018 12/10 Q1003
  • 151220Z 20006KT 9999 SCT014 OVC019 13/10 Q1003
  • 151150Z 20004KT 170V250 9999 SCT014 OVC018 12/09 Q1004
  • 151120Z 25005KT 220V290 9999 BKN013 OVC018 12/09 Q1004
  • 151050Z 28005KT 9999 BKN011 12/10 Q1003
  • 151020Z 30005KT 260V320 9999 BKN010 12/10 Q1003

TAF TAF EGCN
Valide du 15 à 12h jusqu'au 16 à 12h UTC


151105Z 1512/1612 30010KT 9999 FEW008 SCT025
BECMG 1512/1514 18005KT
PROB30
TEMPO 1512/1515 BKN008
PROB30
TEMPO 1600/1603 BKN009
BECMG 1603/1606 BKN009
TEMPO 1603/1611 8000 -RA
PROB40
TEMPO 1604/1611 3000 +RA BKN002
BECMG 1609/1612 26010KT SCT009



MET'MAP, la Météo Aéronautique d'un coup d'oeil ! - Copyright ORBIFLY Décembre 2007 - Disclaimer

ORBIFLY MET'MAP TEAM :

Programmation & Développement : Alexandra Zaïnal
Conception & Développement : Baudouin d'Aumeries
Co-Programmation & Développement : Marc-Olivier Méhu
Soutien technique & logistique : Manuel Goepfert

Contact : metmap@orbifly.com




SOURCES & CREDITS :

   NOAA